createdAt,value
2022-12-20T00:02:00.971Z,81.07
2022-12-20T00:04:30.256Z,83.10
2022-12-20T00:06:59.613Z,79.07
2022-12-20T00:09:28.926Z,90.65
2022-12-20T00:11:58.156Z,73.20
2022-12-20T00:14:27.335Z,63.55
2022-12-20T00:16:56.737Z,57.35
2022-12-20T00:19:26.100Z,59.20
2022-12-20T00:22:01.733Z,57.20
2022-12-20T00:24:37.801Z,58.90
2022-12-20T00:27:13.271Z,64.57
2022-12-20T00:29:42.451Z,58.40
2022-12-20T00:32:11.863Z,61.40
2022-12-20T00:34:41.329Z,60.30
2022-12-20T00:37:10.719Z,60.33
2022-12-20T00:39:40.664Z,59.65
2022-12-20T00:42:10.035Z,57.07
2022-12-20T00:44:40.633Z,58.83
2022-12-20T00:47:09.918Z,58.67
2022-12-20T00:49:39.127Z,63.57
2022-12-20T00:52:08.393Z,62.00
2022-12-20T00:54:37.978Z,62.15
2022-12-20T00:57:07.208Z,62.30
2022-12-20T00:59:36.551Z,65.43
2022-12-20T01:02:06.137Z,66.07
2022-12-20T01:04:35.459Z,65.90
2022-12-20T01:07:05.187Z,69.17
2022-12-20T01:09:34.447Z,67.75
2022-12-20T01:12:03.864Z,65.70
2022-12-20T01:14:33.032Z,71.30
2022-12-20T01:17:02.767Z,64.97
2022-12-20T01:19:32.051Z,67.25
2022-12-20T01:22:01.430Z,67.03
2022-12-20T01:24:31.016Z,60.97
2022-12-20T01:27:00.163Z,69.67
2022-12-20T01:29:29.326Z,62.73
2022-12-20T01:31:58.712Z,66.27
2022-12-20T01:34:28.005Z,65.87
2022-12-20T01:36:57.654Z,69.80
2022-12-20T01:39:26.966Z,68.25
2022-12-20T01:41:56.138Z,63.73
2022-12-20T01:44:43.053Z,67.55
2022-12-20T01:47:12.651Z,64.50
2022-12-20T01:49:44.822Z,65.30
2022-12-20T01:52:16.102Z,63.70
2022-12-20T01:57:17.486Z,64.63
2022-12-20T01:59:50.029Z,63.25
2022-12-20T02:04:47.618Z,60.57
2022-12-20T02:07:18.851Z,57.43
2022-12-20T02:09:48.514Z,58.20
2022-12-20T02:12:20.303Z,64.75
2022-12-20T02:14:56.312Z,62.70
2022-12-20T02:17:31.352Z,64.50
2022-12-20T02:20:12.337Z,60.80
2022-12-20T02:22:50.978Z,64.75
2022-12-20T02:25:36.529Z,64.17
2022-12-20T02:28:16.076Z,64.25
2022-12-20T02:30:47.444Z,63.20
2022-12-20T02:33:17.510Z,63.27
2022-12-20T02:35:46.833Z,63.70
2022-12-20T02:38:28.022Z,65.40
2022-12-20T02:40:59.185Z,57.33
2022-12-20T02:43:47.740Z,61.37
2022-12-20T02:46:19.261Z,64.13
2022-12-20T02:48:49.535Z,61.00
2022-12-20T02:51:22.228Z,61.03
2022-12-20T02:53:51.676Z,60.45
2022-12-20T02:56:23.497Z,69.23
2022-12-20T02:58:54.942Z,58.10
2022-12-20T03:01:28.247Z,66.20
2022-12-20T03:03:59.245Z,68.63
2022-12-20T03:06:30.192Z,64.00
2022-12-20T03:08:59.532Z,60.60
2022-12-20T03:11:30.324Z,66.55
2022-12-20T03:14:00.198Z,60.73
2022-12-20T03:16:29.593Z,67.07
2022-12-20T03:18:59.037Z,55.45
2022-12-20T03:21:28.627Z,64.70
2022-12-20T03:23:57.987Z,67.35
2022-12-20T03:26:27.425Z,68.80
2022-12-20T03:28:59.447Z,70.85
2022-12-20T03:31:30.203Z,64.97
2022-12-20T03:33:59.519Z,69.43
2022-12-20T03:36:29.136Z,77.90
2022-12-20T03:39:01.171Z,106.60
2022-12-20T03:41:33.813Z,123.92
2022-12-20T03:44:03.662Z,132.37
2022-12-20T03:46:33.155Z,109.25
2022-12-20T03:49:02.527Z,89.65
2022-12-20T03:51:31.928Z,99.70
2022-12-20T03:54:01.096Z,109.00
2022-12-20T03:56:45.389Z,92.47
2022-12-20T03:59:14.680Z,83.23
2022-12-20T04:01:45.030Z,86.13
2022-12-20T04:04:15.685Z,80.67
2022-12-20T04:06:44.826Z,81.50
2022-12-20T04:09:14.706Z,82.10
2022-12-20T04:11:49.515Z,81.10
2022-12-20T04:14:18.925Z,72.30
2022-12-20T04:16:48.247Z,72.00
2022-12-20T04:19:18.235Z,71.75
2022-12-20T04:21:49.373Z,71.17
2022-12-20T04:24:19.744Z,73.97
2022-12-20T04:26:56.971Z,74.55
2022-12-20T04:29:26.523Z,74.10
2022-12-20T04:31:56.117Z,72.77
2022-12-20T04:34:25.498Z,78.00
2022-12-20T04:36:54.928Z,70.87
2022-12-20T04:39:36.225Z,76.35
2022-12-20T04:42:34.887Z,80.57
2022-12-20T04:45:04.939Z,69.70
2022-12-20T04:47:34.541Z,81.30
2022-12-20T04:50:06.849Z,72.83
2022-12-20T04:52:54.520Z,76.33
2022-12-20T04:55:23.836Z,73.40
2022-12-20T04:57:53.673Z,82.30
2022-12-20T05:00:23.015Z,79.33
2022-12-20T05:02:58.340Z,69.80
2022-12-20T05:05:28.843Z,76.67
2022-12-20T05:07:58.426Z,75.50
2022-12-20T05:10:27.704Z,79.00
2022-12-20T05:12:57.165Z,77.90
2022-12-20T05:15:34.492Z,85.37
2022-12-20T05:18:04.499Z,78.25
2022-12-20T05:20:42.952Z,91.23
2022-12-20T05:23:31.520Z,94.07
2022-12-20T05:26:19.302Z,97.40
2022-12-20T05:28:49.472Z,88.73
2022-12-20T05:31:19.365Z,84.60
2022-12-20T05:33:48.969Z,85.90
2022-12-20T05:36:18.653Z,84.70
2022-12-20T05:38:48.398Z,89.57
2022-12-20T05:41:19.383Z,83.63
2022-12-20T05:43:51.401Z,84.40
2022-12-20T05:46:20.678Z,81.70
2022-12-20T05:49:01.566Z,78.73
2022-12-20T05:51:32.031Z,82.25
2022-12-20T05:54:05.572Z,79.43
2022-12-20T05:59:18.593Z,80.75
2022-12-20T06:01:50.676Z,87.67
2022-12-20T06:04:20.868Z,84.37
2022-12-20T06:06:50.420Z,80.77
2022-12-20T06:09:21.489Z,80.37
2022-12-20T06:11:59.042Z,82.80
2022-12-20T06:14:29.393Z,82.03
2022-12-20T06:16:59.654Z,83.40
2022-12-20T06:19:29.049Z,86.43
2022-12-20T06:22:00.498Z,82.50
2022-12-20T06:24:44.288Z,93.33
2022-12-20T06:27:18.184Z,88.50
2022-12-20T06:29:51.421Z,90.23
2022-12-20T06:32:23.797Z,105.27
2022-12-20T06:34:54.533Z,101.23
2022-12-20T06:37:24.090Z,112.80
2022-12-20T06:39:53.623Z,110.43
2022-12-20T06:42:23.943Z,111.63
2022-12-20T06:44:53.221Z,110.33
2022-12-20T06:47:23.506Z,100.90
2022-12-20T06:49:54.422Z,99.43
2022-12-20T06:52:26.670Z,94.07
2022-12-20T06:54:57.614Z,105.50
2022-12-20T06:57:27.163Z,107.27
2022-12-20T06:59:57.710Z,120.67
2022-12-20T07:02:27.748Z,123.43
2022-12-20T07:04:57.755Z,115.77
2022-12-20T07:07:27.000Z,117.25
2022-12-20T07:09:56.553Z,113.43
2022-12-20T07:12:25.849Z,104.33
2022-12-20T07:14:55.428Z,100.53
2022-12-20T07:17:25.571Z,92.63
2022-12-20T07:19:55.514Z,93.70
2022-12-20T07:22:25.048Z,106.00
2022-12-20T07:24:55.618Z,107.00
2022-12-20T07:27:25.054Z,104.43
2022-12-20T07:29:56.422Z,99.10
2022-12-20T07:32:25.804Z,97.90
2022-12-20T07:34:55.422Z,94.07
2022-12-20T07:37:24.751Z,93.10
2022-12-20T07:39:54.185Z,79.20
2022-12-20T07:42:25.437Z,83.67
2022-12-20T07:44:57.682Z,86.37
2022-12-20T07:47:27.076Z,80.67
2022-12-20T07:49:58.059Z,82.80
2022-12-20T07:52:28.499Z,88.40
2022-12-20T07:54:59.235Z,82.23
2022-12-20T07:57:32.417Z,87.75
2022-12-20T08:00:02.189Z,77.35
2022-12-20T08:02:43.325Z,86.73
2022-12-20T08:05:15.517Z,90.40
2022-12-20T08:07:46.310Z,86.70
2022-12-20T08:10:19.105Z,84.20
2022-12-20T08:12:48.867Z,97.45
2022-12-20T08:15:21.540Z,85.50
2022-12-20T08:17:51.130Z,83.05
2022-12-20T08:20:20.459Z,78.83
2022-12-20T08:22:50.380Z,82.50
2022-12-20T08:25:21.058Z,79.65
2022-12-20T08:27:50.448Z,75.70
2022-12-20T08:30:19.896Z,69.77
2022-12-20T08:32:49.393Z,74.87
2022-12-20T08:35:18.827Z,68.60
2022-12-20T08:37:48.344Z,75.90
2022-12-20T08:40:18.721Z,73.40
2022-12-20T08:42:48.415Z,65.67
2022-12-20T08:45:19.711Z,73.50
2022-12-20T08:47:48.942Z,62.90
2022-12-20T08:50:19.377Z,67.85
2022-12-20T08:52:48.722Z,70.67
2022-12-20T08:55:20.053Z,62.63
2022-12-20T08:57:53.034Z,62.47
2022-12-20T09:00:22.535Z,65.60
2022-12-20T09:02:54.505Z,63.90
2022-12-20T09:05:24.207Z,60.25
2022-12-20T09:07:53.687Z,59.97
2022-12-20T09:10:23.057Z,63.93
2022-12-20T09:12:52.342Z,61.70
2022-12-20T09:15:21.683Z,57.35
2022-12-20T09:17:51.369Z,59.60
2022-12-20T09:20:20.696Z,64.60
2022-12-20T09:22:50.188Z,66.47
2022-12-20T09:25:19.738Z,56.10
2022-12-20T09:27:49.096Z,57.75
2022-12-20T09:30:18.738Z,72.40
2022-12-20T09:32:47.970Z,68.65
2022-12-20T09:35:22.822Z,57.95
2022-12-20T09:37:52.842Z,56.90
2022-12-20T09:40:24.668Z,55.75
2022-12-20T09:42:54.174Z,56.85
2022-12-20T09:45:25.259Z,52.55
2022-12-20T09:47:54.623Z,60.60
2022-12-20T09:50:33.009Z,56.65
2022-12-20T09:53:06.513Z,55.80
2022-12-20T09:55:37.234Z,59.40
2022-12-20T09:58:19.409Z,60.20
2022-12-20T10:00:53.914Z,61.80
2022-12-20T10:03:26.579Z,56.50
2022-12-20T10:05:59.278Z,58.93
2022-12-20T10:08:42.951Z,62.73
2022-12-20T10:11:18.427Z,63.27
2022-12-20T10:13:55.392Z,54.70
2022-12-20T10:16:33.760Z,61.55
2022-12-20T10:19:08.741Z,61.77
2022-12-20T10:21:42.527Z,56.47
2022-12-20T10:24:13.735Z,57.47
2022-12-20T10:26:43.118Z,59.65
2022-12-20T10:29:12.458Z,60.30
2022-12-20T10:31:41.888Z,56.23
2022-12-20T10:34:11.297Z,55.13
2022-12-20T10:36:41.538Z,58.80
2022-12-20T10:39:10.896Z,59.40
2022-12-20T10:41:51.378Z,51.53
2022-12-20T10:44:24.321Z,54.30
2022-12-20T10:46:55.530Z,57.10
2022-12-20T10:49:30.459Z,51.85
2022-12-20T10:52:00.763Z,56.33
2022-12-20T10:54:32.183Z,55.70
2022-12-20T10:57:03.391Z,50.55
2022-12-20T10:59:34.984Z,53.10
2022-12-20T11:02:21.503Z,52.35
2022-12-20T11:04:59.452Z,54.73
2022-12-20T11:07:30.138Z,54.15
2022-12-20T11:10:00.571Z,55.23
2022-12-20T11:12:30.082Z,57.75
2022-12-20T11:15:09.893Z,53.90
2022-12-20T11:17:41.840Z,52.75
2022-12-20T11:20:26.059Z,56.50
2022-12-20T11:23:03.161Z,52.55
2022-12-20T11:25:37.238Z,49.23
2022-12-20T11:28:19.142Z,52.93
2022-12-20T11:30:54.265Z,52.90
2022-12-20T11:33:32.119Z,52.50
2022-12-20T11:36:02.878Z,57.40
2022-12-20T11:38:39.923Z,55.40
2022-12-20T11:41:11.341Z,56.15
2022-12-20T11:44:15.598Z,53.20
2022-12-20T11:46:48.073Z,60.10
2022-12-20T11:49:40.932Z,60.65
2022-12-20T11:52:15.331Z,59.85
2022-12-20T11:54:46.388Z,56.20
2022-12-20T11:57:18.198Z,55.25
2022-12-20T11:59:50.376Z,55.35
2022-12-20T12:02:23.280Z,55.63
2022-12-20T12:04:55.450Z,51.45
2022-12-20T12:07:28.923Z,51.73
2022-12-20T12:10:00.810Z,58.30
2022-12-20T12:12:33.098Z,56.83
2022-12-20T12:15:05.245Z,55.03
2022-12-20T12:17:38.637Z,56.02
2022-12-20T12:20:22.260Z,53.85
2022-12-20T12:22:55.756Z,46.60
2022-12-20T12:25:25.364Z,47.53
2022-12-20T12:27:54.821Z,49.95
2022-12-20T12:30:24.660Z,50.67
2022-12-20T12:32:55.424Z,48.73
2022-12-20T12:35:38.257Z,48.00
2022-12-20T12:38:27.693Z,49.10
2022-12-20T12:41:07.526Z,50.15
2022-12-20T12:43:47.810Z,50.20
2022-12-20T12:46:18.326Z,55.47
2022-12-20T12:48:50.725Z,49.10
2022-12-20T12:51:25.476Z,52.10
2022-12-20T12:54:02.603Z,50.20
2022-12-20T12:56:46.484Z,48.40
2022-12-20T12:59:25.371Z,49.40
2022-12-20T13:01:56.536Z,47.40
2022-12-20T13:04:30.079Z,52.70
2022-12-20T13:07:04.447Z,50.40
2022-12-20T13:09:38.824Z,51.30
2022-12-20T13:12:27.529Z,49.35
2022-12-20T13:14:56.879Z,52.80
2022-12-20T13:17:46.913Z,50.77
2022-12-20T13:20:17.985Z,47.90
2022-12-20T13:23:14.435Z,48.90
2022-12-20T13:25:45.641Z,51.35
2022-12-20T13:28:33.109Z,58.85
2022-12-20T13:31:21.173Z,53.45
2022-12-20T13:33:51.557Z,50.55
2022-12-20T13:36:31.258Z,49.50
2022-12-20T13:39:01.871Z,53.25
2022-12-20T13:41:42.042Z,51.07
2022-12-20T13:44:21.595Z,53.00
2022-12-20T13:46:54.560Z,49.03
2022-12-20T13:49:27.713Z,53.00
2022-12-20T13:52:23.176Z,47.55
2022-12-20T13:54:54.530Z,48.10
2022-12-20T13:57:27.350Z,49.30
2022-12-20T14:00:05.784Z,49.00
2022-12-20T14:02:40.743Z,49.85
2022-12-20T14:05:16.032Z,56.10
2022-12-20T14:07:47.354Z,49.53
2022-12-20T14:10:21.310Z,48.45
2022-12-20T14:12:54.501Z,54.10
2022-12-20T14:15:25.883Z,50.73
2022-12-20T14:17:55.268Z,51.13
2022-12-20T14:20:26.675Z,52.05
2022-12-20T14:23:04.447Z,48.33
2022-12-20T14:25:38.568Z,56.45
2022-12-20T14:28:14.234Z,62.37
2022-12-20T14:30:44.154Z,71.30
2022-12-20T14:33:21.085Z,70.73
2022-12-20T14:35:51.814Z,61.73
2022-12-20T14:38:25.879Z,66.00
2022-12-20T14:40:55.457Z,67.53
2022-12-20T14:43:27.303Z,74.35
2022-12-20T14:46:14.967Z,65.63
2022-12-20T14:48:44.571Z,60.50
2022-12-20T14:51:19.749Z,56.60
2022-12-20T14:53:50.622Z,55.15
2022-12-20T14:56:25.197Z,52.17
2022-12-20T14:59:03.571Z,56.80
2022-12-20T15:01:37.207Z,55.30
2022-12-20T15:04:23.890Z,58.93
2022-12-20T15:06:53.339Z,52.37
2022-12-20T15:09:24.364Z,53.63
2022-12-20T15:11:54.646Z,60.13
2022-12-20T15:14:28.895Z,57.43
2022-12-20T15:16:58.388Z,61.37
2022-12-20T15:19:27.951Z,57.27
2022-12-20T15:21:57.640Z,60.93
2022-12-20T15:24:27.516Z,56.95
2022-12-20T15:26:56.859Z,61.97
2022-12-20T15:29:27.589Z,58.70
2022-12-20T15:32:01.230Z,69.00
2022-12-20T15:37:01.944Z,81.43
2022-12-20T15:39:32.384Z,68.95
2022-12-20T15:42:04.314Z,66.50
2022-12-20T15:44:35.777Z,64.35
2022-12-20T15:47:05.367Z,63.75
2022-12-20T15:49:35.017Z,61.10
2022-12-20T15:52:04.852Z,63.53
2022-12-20T15:54:35.174Z,64.87
2022-12-20T15:57:06.994Z,67.80
2022-12-20T16:02:28.360Z,64.70
2022-12-20T16:04:58.966Z,70.80
2022-12-20T16:07:28.574Z,71.70
2022-12-20T16:09:58.219Z,74.40
2022-12-20T16:12:30.495Z,71.05
2022-12-20T16:15:00.115Z,71.67
2022-12-20T16:17:29.431Z,73.43
2022-12-20T16:19:58.831Z,79.20
2022-12-20T16:22:28.434Z,81.73
2022-12-20T16:24:58.604Z,85.30
2022-12-20T16:27:27.948Z,79.63
2022-12-20T16:29:57.612Z,72.27
2022-12-20T16:32:27.065Z,72.90
2022-12-20T16:34:56.677Z,71.10
2022-12-20T16:37:26.082Z,69.80
2022-12-20T16:39:55.433Z,67.27
2022-12-20T16:42:24.755Z,60.00
2022-12-20T16:44:54.679Z,65.10
2022-12-20T16:47:24.181Z,63.03
2022-12-20T16:49:54.244Z,69.60
2022-12-20T16:52:23.775Z,73.60
2022-12-20T16:54:53.197Z,77.43
2022-12-20T16:57:23.206Z,87.95
2022-12-20T16:59:52.648Z,83.53
2022-12-20T17:02:26.424Z,82.37
2022-12-20T17:04:57.626Z,91.50
2022-12-20T17:07:27.575Z,87.65
2022-12-20T17:10:10.718Z,73.65
2022-12-20T17:12:40.339Z,68.60
2022-12-20T17:15:15.178Z,63.30
2022-12-20T17:17:45.395Z,64.75
2022-12-20T17:20:15.258Z,63.75
2022-12-20T17:22:45.356Z,66.17
2022-12-20T17:25:18.867Z,67.00
2022-12-20T17:27:48.225Z,66.40
2022-12-20T17:30:18.355Z,68.47
2022-12-20T17:32:48.071Z,64.10
2022-12-20T17:35:22.060Z,63.33
2022-12-20T17:37:55.190Z,77.77
2022-12-20T17:40:25.745Z,73.20
2022-12-20T17:42:55.514Z,84.30
2022-12-20T17:45:26.648Z,77.10
2022-12-20T17:47:59.628Z,76.53
2022-12-20T17:50:29.233Z,75.73
2022-12-20T17:52:58.549Z,73.03
2022-12-20T17:55:28.433Z,78.40
2022-12-20T17:57:58.763Z,72.60
2022-12-20T18:00:38.123Z,71.23
2022-12-20T18:03:19.958Z,80.57
2022-12-20T18:06:07.772Z,73.93
2022-12-20T18:08:39.668Z,81.43
2022-12-20T18:11:09.245Z,79.47
2022-12-20T18:13:44.181Z,93.07
2022-12-20T18:16:14.119Z,88.37
2022-12-20T18:18:44.149Z,96.10
2022-12-20T18:21:14.749Z,101.00
2022-12-20T18:23:44.658Z,107.07
2022-12-20T18:26:14.670Z,114.65
2022-12-20T18:28:45.523Z,101.13
2022-12-20T18:31:16.075Z,97.10
2022-12-20T18:33:45.402Z,88.03
2022-12-20T18:36:15.736Z,89.70
2022-12-20T18:38:46.168Z,87.00
2022-12-20T18:41:17.195Z,81.10
2022-12-20T18:43:46.471Z,78.75
2022-12-20T18:46:17.021Z,84.03
2022-12-20T18:48:47.193Z,79.13
2022-12-20T18:51:17.783Z,82.40
2022-12-20T18:53:47.764Z,79.67
2022-12-20T18:56:19.421Z,77.30
2022-12-20T18:58:48.733Z,77.33
2022-12-20T19:01:20.240Z,74.97
2022-12-20T19:03:50.345Z,76.07
2022-12-20T19:06:20.575Z,76.43
2022-12-20T19:08:50.190Z,69.53
2022-12-20T19:11:20.341Z,76.27
2022-12-20T19:13:50.285Z,73.70
2022-12-20T19:16:20.680Z,75.67
2022-12-20T19:18:50.743Z,76.45
2022-12-20T19:21:21.501Z,72.63
2022-12-20T19:23:51.834Z,78.07
2022-12-20T19:26:22.099Z,79.23
2022-12-20T19:28:51.671Z,69.30
2022-12-20T19:31:23.166Z,71.70
2022-12-20T19:33:53.366Z,75.63
2022-12-20T19:36:24.597Z,76.90
2022-12-20T19:38:55.406Z,81.70
2022-12-20T19:41:25.435Z,82.90
2022-12-20T19:43:55.120Z,84.87
2022-12-20T19:46:28.839Z,76.27
2022-12-20T19:48:59.379Z,77.03
2022-12-20T19:51:28.901Z,75.87
2022-12-20T19:53:58.534Z,76.17
2022-12-20T19:56:29.157Z,75.13
2022-12-20T19:58:58.719Z,78.80
2022-12-20T20:01:29.026Z,86.27
2022-12-20T20:03:59.502Z,84.90
2022-12-20T20:06:29.382Z,79.53
2022-12-20T20:08:59.841Z,83.85
2022-12-20T20:11:30.199Z,80.67
2022-12-20T20:14:00.040Z,72.75
2022-12-20T20:16:29.760Z,70.30
2022-12-20T20:18:59.387Z,70.80
2022-12-20T20:21:29.010Z,68.67
2022-12-20T20:23:58.931Z,71.63
2022-12-20T20:26:29.052Z,72.37
2022-12-20T20:28:58.345Z,73.65
2022-12-20T20:31:28.459Z,74.10
2022-12-20T20:33:58.250Z,74.90
2022-12-20T20:36:27.566Z,77.90
2022-12-20T20:38:57.102Z,80.50
2022-12-20T20:41:26.998Z,80.03
2022-12-20T20:43:56.323Z,81.03
2022-12-20T20:46:25.619Z,84.03
2022-12-20T20:48:55.047Z,85.85
2022-12-20T20:51:24.457Z,83.33
2022-12-20T20:53:53.671Z,85.10
2022-12-20T20:56:23.133Z,82.80
2022-12-20T20:58:57.678Z,81.30
2022-12-20T21:01:30.675Z,81.10
2022-12-20T21:04:00.132Z,83.33
2022-12-20T21:06:40.528Z,78.00
2022-12-20T21:09:11.329Z,75.40
2022-12-20T21:11:40.931Z,77.27
2022-12-20T21:14:12.184Z,78.30
2022-12-20T21:16:41.507Z,74.65
2022-12-20T21:19:10.842Z,82.53
2022-12-20T21:21:40.117Z,71.73
2022-12-20T21:24:09.521Z,82.27
2022-12-20T21:26:38.905Z,79.73
2022-12-20T21:29:08.514Z,72.67
2022-12-20T21:31:37.934Z,78.90
2022-12-20T21:34:07.186Z,74.27
2022-12-20T21:36:36.643Z,77.50
2022-12-20T21:39:06.130Z,77.70
2022-12-20T21:41:35.857Z,76.05
2022-12-20T21:44:05.284Z,72.77
2022-12-20T21:46:34.489Z,73.80
2022-12-20T21:49:03.900Z,86.23
2022-12-20T21:51:34.885Z,78.37
2022-12-20T21:54:04.662Z,85.63
2022-12-20T21:56:35.668Z,87.80
2022-12-20T21:59:04.937Z,80.20
2022-12-20T22:01:34.492Z,77.47
2022-12-20T22:04:04.544Z,74.95
2022-12-20T22:06:34.072Z,74.33
2022-12-20T22:09:06.332Z,76.95
2022-12-20T22:11:36.267Z,73.37
2022-12-20T22:14:06.458Z,68.40
2022-12-20T22:16:36.288Z,65.43
2022-12-20T22:19:06.060Z,70.63
2022-12-20T22:21:36.308Z,71.97
2022-12-20T22:24:05.980Z,66.20
2022-12-20T22:26:36.351Z,65.00
2022-12-20T22:29:06.579Z,65.93
2022-12-20T22:31:36.805Z,66.67
2022-12-20T22:34:06.309Z,68.17
2022-12-20T22:36:36.430Z,67.65
2022-12-20T22:39:05.844Z,69.05
2022-12-20T22:41:35.323Z,67.35
2022-12-20T22:44:05.544Z,69.33
2022-12-20T22:46:34.882Z,69.67
2022-12-20T22:49:04.097Z,66.10
2022-12-20T22:51:33.902Z,68.93
2022-12-20T22:54:03.985Z,68.60
2022-12-20T22:56:33.320Z,72.20
2022-12-20T22:59:02.630Z,70.17
2022-12-20T23:01:32.030Z,67.35
2022-12-20T23:04:02.031Z,67.70
2022-12-20T23:06:31.977Z,74.40
2022-12-20T23:09:01.217Z,69.67
2022-12-20T23:11:48.637Z,65.53
2022-12-20T23:14:36.675Z,71.80
2022-12-20T23:17:06.928Z,69.87
2022-12-20T23:19:50.684Z,65.13
2022-12-20T23:22:40.180Z,63.75
2022-12-20T23:25:11.319Z,69.00
2022-12-20T23:27:41.701Z,69.60
2022-12-20T23:30:13.681Z,64.90
2022-12-20T23:32:44.236Z,73.52
2022-12-20T23:35:16.574Z,67.10
2022-12-20T23:37:45.963Z,74.67
2022-12-20T23:40:15.615Z,79.13
2022-12-20T23:42:44.965Z,72.63
2022-12-20T23:45:14.284Z,74.10
2022-12-20T23:47:43.715Z,76.65
2022-12-20T23:50:13.068Z,76.07
2022-12-20T23:52:43.021Z,68.95
2022-12-20T23:55:12.367Z,70.67
2022-12-20T23:57:41.978Z,70.00
